Time;durP1;ratioP1;P1;durP2;ratioP2;P2;SDS_P1;SDS_P2;PMS_P1;PMS_P2;Temp;Humidity;BMP_temperature;BMP_pressure;BME280_temperature;BME280_humidity;BME280_pressure;Samples;Min_cycle;Max_cycle;Signal;HPM_P1;HPM_P2
2023/03/02 00:02:22;;;;;;;11.02;6.53;;;;;;;-2.75;100.00;101635.50;6070667;29;20044;-85
2023/03/02 00:05:26;;;;;;;12.57;6.78;;;;;;;-2.76;100.00;101636.31;6072710;29;20055;-85
2023/03/02 00:08:28;;;;;;;12.50;7.18;;;;;;;-2.77;100.00;101634.66;6072404;29;20533;-85
2023/03/02 00:11:33;;;;;;;13.00;7.30;;;;;;;-2.77;100.00;101637.19;6081652;29;20048;-85
2023/03/02 00:14:36;;;;;;;14.20;7.30;;;;;;;-2.78;100.00;101645.66;6073867;29;20060;-85
2023/03/02 00:17:38;;;;;;;13.98;6.90;;;;;;;-2.80;100.00;101641.44;6087443;29;20091;-85
2023/03/02 00:20:40;;;;;;;10.95;6.75;;;;;;;-2.83;100.00;101639.78;6067204;29;20121;-85
2023/03/02 00:23:42;;;;;;;11.07;7.00;;;;;;;-2.84;100.00;101645.66;6071042;29;20657;-85
2023/03/02 00:26:44;;;;;;;10.45;5.85;;;;;;;-2.85;100.00;101644.84;6069787;29;20131;-85
2023/03/02 00:29:47;;;;;;;11.27;5.93;;;;;;;-2.88;100.00;101649.94;6068580;29;20048;-85
2023/03/02 00:32:49;;;;;;;11.43;6.22;;;;;;;-2.87;100.00;101650.75;6084463;29;20483;-85
2023/03/02 00:35:50;;;;;;;12.32;6.50;;;;;;;-2.91;100.00;101652.44;6069960;29;20629;-85
2023/03/02 00:38:52;;;;;;;11.13;5.78;;;;;;;-2.88;100.00;101646.53;6067909;29;20051;-85
2023/03/02 00:41:54;;;;;;;11.57;6.40;;;;;;;-2.89;100.00;101639.78;6067994;29;20400;-85
2023/03/02 00:44:58;;;;;;;12.30;6.00;;;;;;;-2.90;100.00;101649.09;6070574;29;20044;-85
2023/03/02 00:47:59;;;;;;;10.18;5.90;;;;;;;-2.90;100.00;101638.97;6085377;29;20236;-85
2023/03/02 00:51:01;;;;;;;10.80;6.03;;;;;;;-2.85;100.00;101644.00;6069837;29;20499;-85
2023/03/02 00:54:03;;;;;;;12.10;6.00;;;;;;;-2.84;100.00;101638.91;6073979;29;20044;-85
2023/03/02 00:57:06;;;;;;;10.85;5.85;;;;;;;-2.83;100.00;101643.16;6069396;29;20037;-85
2023/03/02 01:00:09;;;;;;;10.55;6.57;;;;;;;-2.87;100.00;101640.63;6077859;29;20080;-85
2023/03/02 01:03:13;;;;;;;9.80;5.47;;;;;;;-2.92;100.00;101645.72;6085332;29;20048;-85
2023/03/02 01:06:18;;;;;;;12.73;6.30;;;;;;;-2.98;100.00;101647.44;6070433;29;20049;-85
2023/03/02 01:09:19;;;;;;;11.20;5.78;;;;;;;-3.04;100.00;101633.94;6065896;29;20048;-85
2023/03/02 01:12:22;;;;;;;11.75;6.15;;;;;;;-3.02;100.00;101639.00;6070133;29;20040;-85
2023/03/02 01:15:24;;;;;;;11.60;5.88;;;;;;;-3.05;100.00;101631.44;6076581;29;20196;-85
2023/03/02 01:18:26;;;;;;;9.95;5.30;;;;;;;-3.11;100.00;101634.81;6065996;29;20500;-85
2023/03/02 01:21:28;;;;;;;9.90;5.82;;;;;;;-3.15;100.00;101642.47;6066011;29;20366;-85
2023/03/02 01:24:31;;;;;;;12.82;5.88;;;;;;;-3.10;100.00;101631.47;6081994;29;20076;-85
2023/03/02 01:27:32;;;;;;;11.43;5.70;;;;;;;-3.07;100.00;101636.50;6090548;29;20184;-85
2023/03/02 01:30:34;;;;;;;13.02;5.95;;;;;;;-3.06;100.00;101630.56;6074333;29;20081;-85
2023/03/02 01:33:37;;;;;;;10.55;5.28;;;;;;;-3.12;100.00;101617.97;6070419;29;20400;-85
2023/03/02 01:36:39;;;;;;;10.15;5.72;;;;;;;-3.11;100.00;101624.69;6084966;29;20036;-85
2023/03/02 01:39:40;;;;;;;11.68;5.68;;;;;;;-3.08;100.00;101617.09;6076097;29;20048;-85
2023/03/02 01:42:56;;;;;;;11.00;5.78;;;;;;;-3.13;100.00;101616.28;6070310;29;21083;-85
2023/03/02 01:46:01;;;;;;;9.13;5.43;;;;;;;-3.10;100.00;101620.50;6072076;29;20472;-85
2023/03/02 01:49:15;;;;;;;13.48;5.97;;;;;;;-3.14;100.00;101614.59;6068117;29;20052;-85
2023/03/02 01:52:27;;;;;;;11.75;6.57;;;;;;;-3.18;100.00;101605.34;6070838;29;20047;-85
2023/03/02 01:55:32;;;;;;;9.43;5.80;;;;;;;-3.22;100.00;101602.81;6068518;29;20523;-85
2023/03/02 01:58:36;;;;;;;11.10;5.78;;;;;;;-3.27;100.00;101602.84;6086729;29;20076;-85
2023/03/02 02:01:41;;;;;;;11.88;6.30;;;;;;;-3.30;100.00;101601.16;6068674;29;20129;-85
2023/03/02 02:04:46;;;;;;;8.90;5.38;;;;;;;-3.29;100.00;101604.53;6066255;29;20091;-85
2023/03/02 02:07:48;;;;;;;9.18;5.78;;;;;;;-3.29;100.00;101595.25;6083931;29;20175;-85
2023/03/02 02:10:52;;;;;;;9.57;6.15;;;;;;;-3.28;100.00;101591.88;6081734;29;20037;-85
2023/03/02 02:13:59;;;;;;;8.95;5.38;;;;;;;-3.28;100.00;101604.53;6069965;29;20505;-85
2023/03/02 02:17:01;;;;;;;9.40;5.97;;;;;;;-3.27;100.00;101598.63;6080023;29;20111;-85
2023/03/02 02:20:10;;;;;;;11.63;6.78;;;;;;;-3.20;100.00;101591.84;6066601;29;20051;-85
2023/03/02 02:23:24;;;;;;;10.15;6.22;;;;;;;-3.08;100.00;101589.25;6080325;29;20411;-85
2023/03/02 02:26:33;;;;;;;8.77;6.10;;;;;;;-2.97;100.00;101596.78;6079934;29;20499;-85
2023/03/02 02:29:46;;;;;;;10.07;5.95;;;;;;;-2.96;100.00;101583.25;6065888;29;20087;-85
2023/03/02 02:32:49;;;;;;;12.70;6.57;;;;;;;-2.99;100.00;101590.88;6064777;29;20639;-85
2023/03/02 02:35:55;;;;;;;11.05;6.60;;;;;;;-2.98;100.00;101587.50;6085624;29;20472;-85
2023/03/02 02:39:03;;;;;;;11.15;6.28;;;;;;;-3.04;100.00;101590.91;6092163;29;20778;-85
2023/03/02 02:42:11;;;;;;;10.35;5.60;;;;;;;-3.08;100.00;101578.25;6063519;29;20418;-85
2023/03/02 02:45:26;;;;;;;11.30;6.18;;;;;;;-3.13;100.00;101575.78;6072833;29;20356;-85
2023/03/02 02:48:31;;;;;;;12.15;7.28;;;;;;;-3.12;100.00;101574.06;6066165;29;20087;-85
2023/03/02 02:51:35;;;;;;;12.02;6.38;;;;;;;-3.09;100.00;101574.88;6079224;29;20374;-85
2023/03/02 02:54:38;;;;;;;13.85;7.47;;;;;;;-3.08;100.00;101591.78;6065823;29;20044;-85
2023/03/02 02:57:40;;;;;;;12.15;7.05;;;;;;;-3.07;100.00;101590.09;6077050;29;20533;-85
2023/03/02 03:00:42;;;;;;;13.45;7.22;;;;;;;-3.10;100.00;101587.56;6090067;29;20127;-85
2023/03/02 03:03:52;;;;;;;13.45;7.40;;;;;;;-3.14;100.00;101598.56;6084792;29;20087;-85
2023/03/02 03:06:57;;;;;;;11.85;7.18;;;;;;;-3.10;100.00;101590.09;6051684;29;20789;-85
2023/03/02 03:10:23;;;;;;;15.50;7.53;;;;;;;-3.13;100.00;101583.38;6060727;29;20067;-85
2023/03/02 03:13:25;;;;;;;12.57;7.07;;;;;;;-3.13;100.00;101579.97;6069672;29;20810;-85
2023/03/02 03:16:28;;;;;;;14.38;8.00;;;;;;;-3.10;100.00;101579.97;6081551;29;20063;-85
2023/03/02 03:19:32;;;;;;;14.80;7.78;;;;;;;-3.13;100.00;101569.84;6067329;29;20072;-85
2023/03/02 03:22:41;;;;;;;16.13;7.95;;;;;;;-3.23;100.00;101563.16;6068979;29;20051;-85
2023/03/02 03:25:45;;;;;;;15.25;8.10;;;;;;;-3.25;100.00;101558.94;6061072;29;20184;-85
2023/03/02 03:28:47;;;;;;;19.85;8.80;;;;;;;-3.25;100.00;101565.69;6070812;29;20091;-85
2023/03/02 03:31:56;;;;;;;16.95;8.27;;;;;;;-3.27;100.00;101570.75;6094698;29;20058;-85
2023/03/02 03:34:59;;;;;;;19.55;8.93;;;;;;;-3.29;100.00;101567.41;6073911;29;20206;-85
2023/03/02 03:38:06;;;;;;;21.65;9.80;;;;;;;-3.29;100.00;101567.41;6088006;29;20081;-85
2023/03/02 03:41:08;;;;;;;17.90;9.27;;;;;;;-3.29;100.00;101572.47;6094348;29;20095;-85
2023/03/02 03:44:10;;;;;;;16.75;9.43;;;;;;;-3.27;100.00;101573.28;6072153;29;20441;-85
2023/03/02 03:47:15;;;;;;;21.77;9.98;;;;;;;-3.27;100.00;101578.34;6086138;29;20052;-85
2023/03/02 03:50:17;;;;;;;18.85;8.93;;;;;;;-3.28;100.00;101579.22;6068952;29;20056;-85
2023/03/02 03:53:22;;;;;;;18.63;9.60;;;;;;;-3.25;100.00;101589.31;6068658;29;20056;-85
2023/03/02 03:56:26;;;;;;;20.75;8.73;;;;;;;-3.29;100.00;101597.78;6086661;29;20131;-85
2023/03/02 03:59:28;;;;;;;18.27;8.55;;;;;;;-3.36;100.00;101587.69;6084421;29;20055;-85
2023/03/02 04:02:33;;;;;;;16.40;8.07;;;;;;;-3.44;100.00;101597.00;6068037;29;20052;-85
2023/03/02 04:05:35;;;;;;;19.05;8.98;;;;;;;-3.46;100.00;101597.00;6082645;29;20052;-85
2023/03/02 04:08:38;;;;;;;24.05;10.60;;;;;;;-3.39;100.00;101602.88;6088963;29;20448;-85
2023/03/02 04:11:42;;;;;;;27.77;13.40;;;;;;;-3.19;100.00;101603.63;6073106;29;20048;-85
2023/03/02 04:14:44;;;;;;;34.47;14.00;;;;;;;-3.06;100.00;101606.94;6073195;29;20566;-85
2023/03/02 04:17:46;;;;;;;27.92;12.98;;;;;;;-3.11;100.00;101603.59;6075075;29;20131;-85
2023/03/02 04:20:50;;;;;;;32.28;13.20;;;;;;;-3.18;100.00;101607.00;6082318;29;20550;-85
2023/03/02 04:23:53;;;;;;;39.13;14.73;;;;;;;-3.23;100.00;101603.66;6067574;29;20052;-85
2023/03/02 04:26:56;;;;;;;40.95;14.93;;;;;;;-3.21;100.00;101604.50;6075116;29;20052;-85
2023/03/02 04:29:58;;;;;;;38.00;15.02;;;;;;;-2.96;100.00;101603.50;6078282;29;20083;-85
2023/03/02 04:33:01;;;;;;;38.88;15.65;;;;;;;-2.71;100.00;101606.72;6079577;29;20053;-85
2023/03/02 04:36:05;;;;;;;38.55;15.15;;;;;;;-2.55;100.00;101606.66;6073763;29;20095;-85
2023/03/02 04:39:07;;;;;;;43.28;16.13;;;;;;;-2.42;100.00;101598.09;6082817;29;20696;-85
2023/03/02 04:42:09;;;;;;;46.70;15.35;;;;;;;-2.32;100.00;101602.22;6078446;29;20045;-85
2023/03/02 04:45:12;;;;;;;46.97;15.55;;;;;;;-2.23;100.00;101602.16;6089703;29;20052;-85
2023/03/02 04:48:14;;;;;;;63.92;17.27;;;;;;;-2.13;100.00;101610.53;6088758;29;20107;-85
2023/03/02 04:51:25;;;;;;;47.33;14.30;;;;;;;-2.07;100.00;101607.09;6069116;29;20051;-85
2023/03/02 04:54:27;;;;;;;66.45;16.35;;;;;;;-2.04;100.00;101601.97;6079239;29;20080;-85
2023/03/02 04:57:29;;;;;;;40.22;15.93;;;;;;;-2.02;100.00;101606.19;6080885;29;20539;-85
2023/03/02 05:00:33;;;;;;;44.13;16.88;;;;;;;-1.99;100.00;101603.66;6080633;29;20122;-85
2023/03/02 05:03:35;;;;;;;50.65;16.83;;;;;;;-1.93;100.00;101610.34;6067389;29;20384;-85
2023/03/02 05:06:38;;;;;;;51.78;16.73;;;;;;;-1.86;100.00;101606.03;6066740;29;20071;-85
2023/03/02 05:09:40;;;;;;;51.92;17.15;;;;;;;-1.82;100.00;101606.00;6068852;29;20477;-85
2023/03/02 05:12:57;;;;;;;34.35;15.18;;;;;;;-1.77;100.00;101606.78;6068554;29;20503;-85
2023/03/02 05:15:59;;;;;;;42.97;15.85;;;;;;;-1.80;100.00;101601.75;6068462;29;20055;-85
2023/03/02 05:19:03;;;;;;;35.00;14.73;;;;;;;-1.80;100.00;101590.75;6100801;29;20471;-85
2023/03/02 05:22:05;;;;;;;42.85;15.68;;;;;;;-1.80;100.00;101601.75;6077287;29;20500;-85
2023/03/02 05:25:07;;;;;;;50.05;15.13;;;;;;;-1.82;100.00;101603.44;6077260;29;20403;-85
2023/03/02 05:28:09;;;;;;;42.17;16.33;;;;;;;-1.76;100.00;101600.03;6084241;29;20040;-85
2023/03/02 05:31:18;;;;;;;48.13;16.27;;;;;;;-1.76;100.00;101592.41;6071392;29;20076;-85
2023/03/02 05:34:19;;;;;;;43.17;16.52;;;;;;;-1.75;100.00;101606.78;6077156;29;20298;-85
2023/03/02 05:37:21;;;;;;;39.85;15.07;;;;;;;-1.73;100.00;101608.44;6077022;29;20494;-85
2023/03/02 05:40:23;;;;;;;40.15;16.17;;;;;;;-1.70;100.00;101597.41;6077453;29;20052;-86
2023/03/02 05:43:25;;;;;;;47.47;15.75;;;;;;;-1.65;100.00;101599.91;6076957;29;20414;-85
2023/03/02 05:46:27;;;;;;;48.22;17.45;;;;;;;-1.67;100.00;101606.69;6068610;29;20049;-85
2023/03/02 05:49:28;;;;;;;43.58;15.70;;;;;;;-1.64;100.00;101609.19;6079080;29;20045;-85
2023/03/02 05:52:30;;;;;;;62.03;16.20;;;;;;;-1.62;100.00;101610.84;6065350;29;20491;-86
2023/03/02 05:55:35;;;;;;;43.58;14.82;;;;;;;-1.61;100.00;101607.47;6084694;29;20044;-85
2023/03/02 05:58:37;;;;;;;39.15;15.77;;;;;;;-1.61;100.00;101610.00;6072936;29;20120;-85
2023/03/02 06:01:39;;;;;;;38.25;14.63;;;;;;;-1.59;100.00;101621.00;6069020;29;20491;-85
2023/03/02 06:04:41;;;;;;;42.38;17.25;;;;;;;-1.56;100.00;101623.50;6066846;29;20052;-85
2023/03/02 06:07:45;;;;;;;40.05;16.88;;;;;;;-1.52;100.00;101629.38;6069863;29;20039;-85
2023/03/02 06:10:49;;;;;;;36.40;16.17;;;;;;;-1.52;100.00;101635.31;6085567;29;20048;-85
2023/03/02 06:13:51;;;;;;;49.05;16.88;;;;;;;-1.45;100.00;101640.31;6086527;29;20051;-85
2023/03/02 06:16:53;;;;;;;42.50;17.88;;;;;;;-1.43;100.00;101641.13;6069849;29;20052;-85
2023/03/02 06:19:54;;;;;;;57.95;19.38;;;;;;;-1.42;100.00;101637.72;6076951;29;20079;-85
2023/03/02 06:22:57;;;;;;;43.20;18.65;;;;;;;-1.38;100.00;101647.00;6067705;29;20117;-85
2023/03/02 06:25:59;;;;;;;53.90;18.48;;;;;;;-1.36;100.00;101653.75;6072066;29;20036;-85
2023/03/02 06:29:00;;;;;;;41.90;16.67;;;;;;;-1.30;100.00;101648.56;6077598;29;20041;-85
2023/03/02 06:32:02;;;;;;;43.15;18.83;;;;;;;-1.28;100.00;101650.28;6065350;29;20259;-85
2023/03/02 06:35:05;;;;;;;45.92;17.83;;;;;;;-1.25;100.00;101656.16;6074227;29;20428;-85
2023/03/02 06:38:07;;;;;;;49.03;18.83;;;;;;;-1.20;100.00;101661.19;6077270;29;20505;-85
2023/03/02 06:41:09;;;;;;;42.90;18.38;;;;;;;-1.15;100.00;101656.88;6080952;29;20612;-85
2023/03/02 06:44:12;;;;;;;39.75;16.58;;;;;;;-1.14;100.00;101659.41;6075462;29;20185;-86
2023/03/02 06:47:14;;;;;;;40.45;16.88;;;;;;;-1.08;100.00;101663.56;6067023;29;20072;-85
2023/03/02 06:50:16;;;;;;;44.75;20.05;;;;;;;-1.06;100.00;101661.84;6074413;29;20067;-85
2023/03/02 06:53:19;;;;;;;45.97;16.42;;;;;;;-0.96;100.00;101657.50;6061295;29;20044;-85
2023/03/02 06:56:21;;;;;;;38.45;16.95;;;;;;;-0.94;100.00;101658.34;6074552;29;20608;-85
2023/03/02 06:59:22;;;;;;;35.22;16.10;;;;;;;-0.92;100.00;101654.03;6072954;29;20603;-85
2023/03/02 07:02:24;;;;;;;36.00;16.00;;;;;;;-0.88;100.00;101651.44;6078219;29;20056;-85
2023/03/02 07:05:26;;;;;;;33.83;16.08;;;;;;;-0.87;100.00;101647.19;6074862;29;20530;-86
2023/03/02 07:08:29;;;;;;;36.47;16.30;;;;;;;-0.87;100.00;101642.13;6076009;29;20074;-85
2023/03/02 07:11:30;;;;;;;33.35;16.30;;;;;;;-0.78;100.00;101641.16;6072491;29;20053;-85
2023/03/02 07:14:39;;;;;;;36.58;15.52;;;;;;;-0.64;100.00;101633.34;6085236;29;20052;-85
2023/03/02 07:17:42;;;;;;;30.85;14.35;;;;;;;-0.50;100.00;101623.78;6067528;29;20053;-85
2023/03/02 07:20:44;;;;;;;29.65;14.13;;;;;;;-0.41;100.00;101622.81;6086377;29;20172;-85
2023/03/02 07:23:46;;;;;;;32.58;14.93;;;;;;;-0.39;100.00;101623.66;6085801;29;20052;-85
2023/03/02 07:26:48;;;;;;;30.63;14.70;;;;;;;-0.31;100.00;101626.91;6073644;29;20102;-85
2023/03/02 07:29:49;;;;;;;30.85;15.57;;;;;;;-0.28;100.00;101622.59;6066138;29;20594;-85
2023/03/02 07:32:52;;;;;;;30.42;13.77;;;;;;;-0.24;100.00;101614.06;6075995;29;20499;-85
2023/03/02 07:35:54;;;;;;;31.42;13.68;;;;;;;-0.17;100.00;101606.31;6075749;29;20636;-85
2023/03/02 07:38:56;;;;;;;28.63;13.63;;;;;;;-0.12;100.00;101613.00;6079768;29;20274;-86
2023/03/02 07:41:59;;;;;;;28.90;14.07;;;;;;;-0.04;100.00;101608.63;6085568;29;20119;-86
2023/03/02 07:45:03;;;;;;;27.27;13.65;;;;;;;0.07;100.00;101610.13;6089608;29;20075;-86
2023/03/02 07:48:05;;;;;;;30.35;13.75;;;;;;;0.14;100.00;101607.44;6072216;29;20051;-86
2023/03/02 07:51:07;;;;;;;27.35;13.60;;;;;;;0.29;100.00;101613.13;6082119;29;20487;-86
2023/03/02 07:54:10;;;;;;;28.65;14.80;;;;;;;0.32;100.00;101618.16;6083430;29;20067;-86
2023/03/02 07:57:14;;;;;;;27.02;14.38;;;;;;;0.30;100.00;101620.75;6081224;29;20519;-86
2023/03/02 08:00:17;;;;;;;27.17;13.80;;;;;;;0.29;100.00;101613.13;6069440;29;20163;-86
2023/03/02 08:03:19;;;;;;;29.80;14.55;;;;;;;0.32;100.00;101600.34;6070767;29;20535;-85
2023/03/02 08:06:21;;;;;;;33.70;15.80;;;;;;;0.30;100.00;101599.53;6069467;29;20044;-85
2023/03/02 08:09:23;;;;;;;30.30;15.25;;;;;;;0.39;100.00;101595.09;6069950;29;20087;-85
2023/03/02 08:12:24;;;;;;;30.00;14.68;;;;;;;0.53;100.00;101599.94;6082533;29;20040;-85
2023/03/02 08:15:26;;;;;;;33.92;15.35;;;;;;;0.58;100.00;101603.22;6079100;29;20418;-85
2023/03/02 08:18:28;;;;;;;34.08;15.45;;;;;;;0.63;100.00;101603.13;6070562;29;20522;-86
2023/03/02 08:21:30;;;;;;;31.80;15.35;;;;;;;0.65;100.00;101603.94;6081542;29;20051;-85
2023/03/02 08:24:32;;;;;;;30.83;15.23;;;;;;;0.62;100.00;101607.41;6080480;29;20095;-85
2023/03/02 08:27:34;;;;;;;32.95;15.48;;;;;;;0.60;100.00;101604.03;6081791;29;20172;-86
2023/03/02 08:30:36;;;;;;;27.25;14.23;;;;;;;0.60;100.00;101601.50;6085103;29;20732;-85
2023/03/02 08:33:38;;;;;;;29.02;14.27;;;;;;;0.64;100.00;101607.34;6074765;29;20095;-85
2023/03/02 08:36:42;;;;;;;31.63;14.50;;;;;;;0.62;100.00;101601.44;6072323;29;20111;-85
2023/03/02 08:39:44;;;;;;;25.77;14.40;;;;;;;0.55;100.00;101607.56;6075655;29;20050;-85
2023/03/02 08:42:45;;;;;;;31.52;14.52;;;;;;;0.61;100.00;101607.41;6075482;29;20044;-86
2023/03/02 08:45:52;;;;;;;31.83;15.25;;;;;;;0.62;100.00;101609.09;6068631;29;20044;-85
2023/03/02 08:48:54;;;;;;;29.05;15.15;;;;;;;0.71;100.00;101601.25;6078857;29;20040;-85
2023/03/02 08:51:59;;;;;;;33.42;14.98;;;;;;;0.80;100.00;101606.19;6083270;29;20040;-86
2023/03/02 08:55:01;;;;;;;28.00;14.68;;;;;;;0.76;100.00;101593.53;6077933;29;20047;-85
2023/03/02 08:58:04;;;;;;;29.65;14.82;;;;;;;0.79;100.00;101601.94;6070071;29;20056;-85
2023/03/02 09:01:12;;;;;;;22.23;12.60;;;;;;;0.95;100.00;101609.28;6077344;29;20040;-85
2023/03/02 09:04:14;;;;;;;28.27;12.95;;;;;;;1.01;100.00;101606.56;6072560;29;20486;-85
2023/03/02 09:07:16;;;;;;;24.77;12.98;;;;;;;1.07;100.00;101603.91;6070231;29;20155;-85
2023/03/02 09:10:18;;;;;;;26.60;13.10;;;;;;;1.06;100.00;101597.13;6071027;29;20064;-85
2023/03/02 09:13:19;;;;;;;29.98;13.68;;;;;;;1.10;100.00;101610.66;6071495;29;20036;-85
2023/03/02 09:16:24;;;;;;;28.00;13.93;;;;;;;1.18;100.00;101601.94;6081147;29;20041;-85
2023/03/02 09:19:26;;;;;;;27.85;12.95;;;;;;;1.27;100.00;101609.41;6080153;29;20045;-85
2023/03/02 09:22:30;;;;;;;31.02;14.10;;;;;;;1.32;100.00;101600.78;6079946;29;20550;-85
2023/03/02 09:25:31;;;;;;;23.30;12.60;;;;;;;1.28;100.00;101611.06;6062018;29;20099;-85
2023/03/02 09:28:34;;;;;;;26.17;13.50;;;;;;;1.31;100.00;101612.69;6069700;29;20246;-85
2023/03/02 09:31:36;;;;;;;30.55;13.73;;;;;;;1.36;100.00;101604.94;6072833;29;20052;-85
2023/03/02 09:34:39;;;;;;;26.92;13.60;;;;;;;1.61;100.00;101610.31;6075387;29;20053;-86
2023/03/02 09:37:41;;;;;;;29.58;14.25;;;;;;;1.90;100.00;101607.03;6076418;29;20041;-85
2023/03/02 09:41:22;;;;;;;29.27;12.85;;;;;;;2.05;100.00;101601.53;6064782;29;20599;-85
2023/03/02 09:44:43;;;;;;;28.92;14.00;;;;;;;2.02;100.00;101606.72;6070846;29;20131;-85
2023/03/02 09:47:54;;;;;;;32.25;14.80;;;;;;;2.03;100.00;101608.38;6083111;29;20056;-85
2023/03/02 09:51:24;;;;;;;26.48;13.60;;;;;;;2.06;100.00;101602.38;6076644;29;20044;-86
2023/03/02 09:54:27;;;;;;;25.52;12.93;;;;;;;2.13;100.00;101612.38;6072910;29;20543;-85
2023/03/02 09:57:37;;;;;;;28.48;13.23;;;;;;;2.12;100.00;101609.88;6070073;29;20051;-86
2023/03/02 10:00:42;;;;;;;31.48;15.38;;;;;;;2.17;100.00;101615.72;6062386;29;20411;-85
2023/03/02 10:04:04;;;;;;;28.48;13.40;;;;;;;2.25;100.00;101607.84;6063393;29;21097;-86
2023/03/02 10:07:13;;;;;;;22.85;12.00;;;;;;;2.37;100.00;101610.91;6077991;29;20466;-86
2023/03/02 10:10:20;;;;;;;23.15;12.02;;;;;;;2.47;100.00;101608.09;6061639;29;20052;-85
2023/03/02 10:13:45;;;;;;;21.70;11.02;;;;;;;2.51;100.00;101610.53;6071009;29;20071;-85
2023/03/02 10:17:16;;;;;;;25.52;12.75;;;;;;;2.56;100.00;101598.44;6082176;29;20411;-86
2023/03/02 10:20:35;;;;;;;23.95;12.80;;;;;;;2.63;100.00;101598.25;6083537;29;20048;-86
2023/03/02 10:23:44;;;;;;;26.00;12.77;;;;;;;2.71;100.00;101591.22;6068502;29;20048;-86
2023/03/02 10:26:49;;;;;;;25.67;12.80;;;;;;;2.88;100.00;101594.13;6070635;29;20040;-86
2023/03/02 10:30:06;;;;;;;24.50;12.52;;;;;;;3.01;100.00;101594.59;6070133;29;20048;-86
2023/03/02 10:33:19;;;;;;;24.27;12.40;;;;;;;3.01;100.00;101594.59;6074568;29;20055;-86
2023/03/02 10:36:36;;;;;;;28.65;13.32;;;;;;;3.05;100.00;101595.34;6070468;29;20513;-86
2023/03/02 10:39:38;;;;;;;25.95;13.32;;;;;;;3.12;100.00;101589.97;6066504;29;20426;-86
2023/03/02 10:42:40;;;;;;;22.90;12.90;;;;;;;3.15;100.00;101589.03;6067692;29;20136;-86
2023/03/02 10:45:42;;;;;;;24.65;12.32;;;;;;;3.35;100.00;101580.75;6079831;29;20067;-86
2023/03/02 10:49:00;;;;;;;25.20;12.88;;;;;;;3.40;100.00;101577.19;6072595;29;20052;-86
2023/03/02 10:52:04;;;;;;;23.50;12.50;;;;;;;3.48;100.00;101584.59;6067996;29;20415;-86
2023/03/02 10:55:13;;;;;;;23.17;12.48;;;;;;;3.55;100.00;101575.84;6069503;29;20522;-86
2023/03/02 10:58:24;;;;;;;24.23;12.73;;;;;;;3.52;100.00;101570.81;6075580;29;20518;-86
2023/03/02 11:01:26;;;;;;;;;;;;;;;3.53;100.00;101564.81;6069969;29;20178;-86
2023/03/02 11:04:29;;;;;;;28.63;13.70;;;;;;;3.72;100.00;101571.88;6078068;29;20456;-86
2023/03/02 11:07:31;;;;;;;27.05;13.30;;;;;;;3.76;100.00;101568.31;6066928;29;20446;-86
2023/03/02 11:10:58;;;;;;;25.85;13.82;;;;;;;3.69;100.00;101561.75;6073172;29;20056;-86
2023/03/02 11:14:14;;;;;;;26.45;14.55;;;;;;;3.64;100.00;101556.75;6065482;29;20487;-86
2023/03/02 11:17:38;;;;;;;29.92;14.88;;;;;;;3.76;100.00;101558.91;6073816;29;20053;-87
2023/03/02 11:20:51;;;;;;;28.90;14.82;;;;;;;3.97;100.00;101564.19;6071263;29;20139;-86
2023/03/02 11:24:17;;;;;;;26.25;13.77;;;;;;;4.01;100.00;101551.22;6072699;29;20668;-87
2023/03/02 11:27:25;;;;;;;29.77;14.45;;;;;;;4.04;100.00;101558.78;6079765;29;20533;-86
2023/03/02 11:30:33;;;;;;;22.80;12.88;;;;;;;4.08;100.00;101559.53;6075953;29;20056;-87
2023/03/02 11:33:52;;;;;;;24.92;13.20;;;;;;;4.06;100.00;101553.63;6080884;29;20047;-87
2023/03/02 11:37:29;;;;;;;28.17;13.95;;;;;;;4.05;100.00;101545.09;6076016;29;20526;-88
2023/03/02 11:40:41;;;;;;;30.80;13.90;;;;;;;4.26;100.00;101542.66;6069045;29;20048;-87
2023/03/02 11:43:44;;;;;;;29.60;14.50;;;;;;;4.30;100.00;101545.06;6074557;29;20047;-87
2023/03/02 11:46:57;;;;;;;28.30;14.20;;;;;;;4.28;100.00;101540.88;6079767;29;20049;-87
2023/03/02 11:50:04;;;;;;;23.38;13.00;;;;;;;4.32;100.00;101542.44;6088479;29;20040;-87
2023/03/02 11:53:13;;;;;;;26.17;13.77;;;;;;;4.36;100.00;101538.88;6081680;29;20052;-87
2023/03/02 11:56:15;;;;;;;27.90;13.75;;;;;;;4.28;100.00;101546.00;6079004;29;20295;-87
2023/03/02 11:59:19;;;;;;;27.35;13.90;;;;;;;4.22;100.00;101543.66;6074054;29;20088;-87
2023/03/02 12:02:21;;;;;;;24.45;12.88;;;;;;;3.96;100.00;101540.31;6075468;29;20040;-86
2023/03/02 12:05:30;;;;;;;26.80;13.55;;;;;;;3.54;100.00;101537.47;6085893;29;20051;-87
2023/03/02 12:08:42;;;;;;;24.33;12.73;;;;;;;3.07;100.00;101527.91;6068389;29;20155;-87
2023/03/02 12:11:44;;;;;;;24.58;13.45;;;;;;;3.15;100.00;101523.38;6075604;29;20049;-88
2023/03/02 12:14:46;;;;;;;24.67;13.27;;;;;;;3.30;100.00;101516.91;6075331;29;20060;-87
2023/03/02 12:17:48;;;;;;;28.52;14.50;;;;;;;3.37;100.00;101515.84;6069777;29;20045;-88
2023/03/02 12:21:10;;;;;;;24.00;13.32;;;;;;;3.35;100.00;101507.38;6072028;29;20041;-88
2023/03/02 12:24:33;;;;;;;23.00;12.90;;;;;;;3.34;100.00;101499.75;6068831;29;20045;-88
2023/03/02 12:27:37;;;;;;;21.95;12.85;;;;;;;3.32;100.00;101499.78;6075921;29;20356;-88
2023/03/02 12:30:39;;;;;;;23.27;12.88;;;;;;;3.37;100.00;101497.09;6076118;29;20188;-88
2023/03/02 12:33:51;;;;;;;22.70;12.50;;;;;;;3.44;100.00;101498.56;6080791;29;20053;-87
2023/03/02 12:37:17;;;;;;;23.80;13.48;;;;;;;3.39;100.00;101485.91;6068456;29;20508;-88
2023/03/02 12:40:37;;;;;;;22.30;12.63;;;;;;;3.22;100.00;101491.59;6070796;29;20079;-89
2023/03/02 12:44:01;;;;;;;23.85;13.95;;;;;;;3.31;100.00;101494.75;6072550;29;20106;-88
2023/03/02 12:47:13;;;;;;;29.58;14.18;;;;;;;3.39;100.00;101490.19;6073337;29;20040;-88
2023/03/02 12:50:26;;;;;;;24.65;13.95;;;;;;;3.44;100.00;101486.59;6069269;29;20528;-88
2023/03/02 12:53:28;;;;;;;23.02;13.40;;;;;;;3.51;100.00;101488.97;6082271;29;20353;-88
2023/03/02 12:56:30;;;;;;;26.08;13.75;;;;;;;3.54;100.00;101481.16;6080707;29;20060;-88
2023/03/02 12:59:32;;;;;;;28.67;13.93;;;;;;;3.60;100.00;101478.38;6070005;29;20139;-88
2023/03/02 13:02:35;;;;;;;24.17;13.82;;;;;;;3.76;100.00;101478.72;6071223;29;20455;-88
2023/03/02 13:05:37;;;;;;;28.58;13.85;;;;;;;3.81;100.00;101471.69;6063813;29;20049;-88
2023/03/02 13:08:42;;;;;;;26.13;14.30;;;;;;;3.80;100.00;101470.00;6076703;29;20041;-88
2023/03/02 13:11:44;;;;;;;29.27;14.85;;;;;;;3.89;100.00;101462.84;6085790;29;20040;-87
2023/03/02 13:14:53;;;;;;;30.27;16.05;;;;;;;4.00;100.00;101454.78;6076683;29;20681;-88
2023/03/02 13:17:57;;;;;;;26.05;15.63;;;;;;;4.07;100.00;101456.22;6076315;29;20052;-88
2023/03/02 13:21:02;;;;;;;30.98;16.85;;;;;;;4.17;100.00;101453.31;6071485;29;20063;-88
2023/03/02 13:24:32;;;;;;;36.75;16.55;;;;;;;4.29;100.00;101447.72;6071919;29;20064;-88
2023/03/02 13:27:34;;;;;;;33.30;18.60;;;;;;;4.43;100.00;101442.91;6079613;29;20467;-88
2023/03/02 13:30:44;;;;;;;35.38;17.50;;;;;;;4.55;100.00;101436.47;6078862;29;20048;-89
2023/03/02 13:33:49;;;;;;;30.75;18.10;;;;;;;4.67;100.00;101435.13;6088438;29;20045;-88
2023/03/02 13:36:51;;;;;;;35.15;18.92;;;;;;;4.84;100.00;101432.75;6087356;29;20133;-88
2023/03/02 13:40:01;;;;;;;36.30;18.92;;;;;;;5.04;100.00;101431.09;6068089;29;20146;-88
2023/03/02 13:43:07;;;;;;;31.35;15.85;;;;;;;5.16;100.00;101428.03;6057286;29;20067;-88
2023/03/02 13:46:12;;;;;;;32.97;17.20;;;;;;;5.17;100.00;101427.97;6081510;29;20074;-88
2023/03/02 13:49:34;;;;;;;28.73;15.57;;;;;;;5.10;100.00;101428.28;6080329;29;20076;-87
2023/03/02 13:52:40;;;;;;;30.40;16.30;;;;;;;5.09;100.00;101426.59;6076086;29;20447;-88
2023/03/02 13:55:42;;;;;;;28.80;15.48;;;;;;;5.13;100.00;101413.59;6079894;29;20207;-87
2023/03/02 13:58:47;;;;;;;26.17;15.05;;;;;;;4.97;100.00;101415.97;6069893;29;20044;-87
2023/03/02 14:01:52;;;;;;;27.55;14.60;;;;;;;4.81;100.00;101412.34;6066551;29;20045;-87